sensor_id;sensor_type;location;lat;lon;timestamp;P1;durP1;ratioP1;P2;durP2;ratioP2
68196;SDS011;55019;49.382;11.358;2023-07-24T00:02:05;4.65;;;2.53;;
68196;SDS011;55019;49.382;11.358;2023-07-24T00:04:32;4.05;;;2.47;;
68196;SDS011;55019;49.382;11.358;2023-07-24T00:06:58;4.35;;;2.38;;
68196;SDS011;55019;49.382;11.358;2023-07-24T00:09:24;5.60;;;2.67;;
68196;SDS011;55019;49.382;11.358;2023-07-24T00:11:50;4.90;;;2.45;;
68196;SDS011;55019;49.382;11.358;2023-07-24T00:14:16;4.90;;;2.65;;
68196;SDS011;55019;49.382;11.358;2023-07-24T00:16:41;4.88;;;3.10;;
68196;SDS011;55019;49.382;11.358;2023-07-24T00:19:07;3.65;;;2.47;;
68196;SDS011;55019;49.382;11.358;2023-07-24T00:21:33;5.00;;;2.90;;
68196;SDS011;55019;49.382;11.358;2023-07-24T00:23:59;4.82;;;2.85;;
68196;SDS011;55019;49.382;11.358;2023-07-24T00:26:24;6.20;;;3.00;;
68196;SDS011;55019;49.382;11.358;2023-07-24T00:28:50;4.30;;;2.65;;
68196;SDS011;55019;49.382;11.358;2023-07-24T00:31:16;5.35;;;2.97;;
68196;SDS011;55019;49.382;11.358;2023-07-24T00:33:43;8.13;;;2.97;;
68196;SDS011;55019;49.382;11.358;2023-07-24T00:36:10;4.97;;;2.40;;
68196;SDS011;55019;49.382;11.358;2023-07-24T00:38:36;5.35;;;2.70;;
68196;SDS011;55019;49.382;11.358;2023-07-24T00:41:02;7.10;;;2.92;;
68196;SDS011;55019;49.382;11.358;2023-07-24T00:43:27;5.15;;;3.20;;
68196;SDS011;55019;49.382;11.358;2023-07-24T00:45:54;6.15;;;3.33;;
68196;SDS011;55019;49.382;11.358;2023-07-24T00:48:21;7.07;;;3.33;;
68196;SDS011;55019;49.382;11.358;2023-07-24T00:50:47;7.72;;;3.55;;
68196;SDS011;55019;49.382;11.358;2023-07-24T00:53:13;5.40;;;3.10;;
68196;SDS011;55019;49.382;11.358;2023-07-24T00:55:41;6.38;;;3.17;;
68196;SDS011;55019;49.382;11.358;2023-07-24T00:58:07;5.82;;;3.03;;
68196;SDS011;55019;49.382;11.358;2023-07-24T01:00:36;5.18;;;2.90;;
68196;SDS011;55019;49.382;11.358;2023-07-24T01:03:03;6.55;;;3.38;;
68196;SDS011;55019;49.382;11.358;2023-07-24T01:05:32;6.90;;;3.33;;
68196;SDS011;55019;49.382;11.358;2023-07-24T01:07:57;6.18;;;3.30;;
68196;SDS011;55019;49.382;11.358;2023-07-24T01:10:23;5.65;;;2.90;;
68196;SDS011;55019;49.382;11.358;2023-07-24T01:13:02;6.60;;;3.33;;
68196;SDS011;55019;49.382;11.358;2023-07-24T01:15:42;7.03;;;3.75;;
68196;SDS011;55019;49.382;11.358;2023-07-24T01:18:22;5.55;;;2.80;;
68196;SDS011;55019;49.382;11.358;2023-07-24T01:20:50;4.57;;;2.75;;
68196;SDS011;55019;49.382;11.358;2023-07-24T01:26:08;6.80;;;3.28;;
68196;SDS011;55019;49.382;11.358;2023-07-24T01:28:35;6.20;;;3.30;;
68196;SDS011;55019;49.382;11.358;2023-07-24T01:31:00;7.40;;;3.33;;
68196;SDS011;55019;49.382;11.358;2023-07-24T01:33:26;6.28;;;3.17;;
68196;SDS011;55019;49.382;11.358;2023-07-24T01:35:57;7.32;;;4.65;;
68196;SDS011;55019;49.382;11.358;2023-07-24T01:38:24;4.63;;;2.55;;
68196;SDS011;55019;49.382;11.358;2023-07-24T01:40:54;6.93;;;3.72;;
68196;SDS011;55019;49.382;11.358;2023-07-24T01:43:20;6.57;;;3.20;;
68196;SDS011;55019;49.382;11.358;2023-07-24T01:45:47;6.72;;;3.28;;
68196;SDS011;55019;49.382;11.358;2023-07-24T01:48:12;5.32;;;2.63;;
68196;SDS011;55019;49.382;11.358;2023-07-24T01:50:38;8.23;;;2.97;;
68196;SDS011;55019;49.382;11.358;2023-07-24T01:53:04;7.10;;;3.35;;
68196;SDS011;55019;49.382;11.358;2023-07-24T01:55:30;5.97;;;3.13;;
68196;SDS011;55019;49.382;11.358;2023-07-24T01:57:55;6.03;;;2.95;;
68196;SDS011;55019;49.382;11.358;2023-07-24T02:00:21;6.32;;;3.08;;
68196;SDS011;55019;49.382;11.358;2023-07-24T02:02:56;7.38;;;3.03;;
68196;SDS011;55019;49.382;11.358;2023-07-24T02:05:22;7.80;;;3.75;;
68196;SDS011;55019;49.382;11.358;2023-07-24T02:07:48;9.60;;;4.38;;
68196;SDS011;55019;49.382;11.358;2023-07-24T02:10:13;5.47;;;2.95;;
68196;SDS011;55019;49.382;11.358;2023-07-24T02:12:39;7.82;;;3.17;;
68196;SDS011;55019;49.382;11.358;2023-07-24T02:15:05;7.07;;;4.00;;
68196;SDS011;55019;49.382;11.358;2023-07-24T02:17:32;6.95;;;3.80;;
68196;SDS011;55019;49.382;11.358;2023-07-24T02:19:57;5.95;;;3.40;;
68196;SDS011;55019;49.382;11.358;2023-07-24T02:22:23;4.82;;;3.10;;
68196;SDS011;55019;49.382;11.358;2023-07-24T02:24:49;8.13;;;3.63;;
68196;SDS011;55019;49.382;11.358;2023-07-24T02:27:30;6.15;;;3.05;;
68196;SDS011;55019;49.382;11.358;2023-07-24T02:29:57;8.48;;;3.13;;
68196;SDS011;55019;49.382;11.358;2023-07-24T02:32:25;6.40;;;3.20;;
68196;SDS011;55019;49.382;11.358;2023-07-24T02:34:51;6.75;;;3.15;;
68196;SDS011;55019;49.382;11.358;2023-07-24T02:37:17;5.35;;;2.88;;
68196;SDS011;55019;49.382;11.358;2023-07-24T02:39:44;6.50;;;3.75;;
68196;SDS011;55019;49.382;11.358;2023-07-24T02:42:10;6.85;;;3.70;;
68196;SDS011;55019;49.382;11.358;2023-07-24T02:44:36;21.33;;;3.88;;
68196;SDS011;55019;49.382;11.358;2023-07-24T02:47:02;5.97;;;3.33;;
68196;SDS011;55019;49.382;11.358;2023-07-24T02:49:28;7.82;;;3.53;;
68196;SDS011;55019;49.382;11.358;2023-07-24T02:51:54;6.78;;;3.28;;
68196;SDS011;55019;49.382;11.358;2023-07-24T02:54:20;6.47;;;3.78;;
68196;SDS011;55019;49.382;11.358;2023-07-24T02:56:45;5.55;;;3.30;;
68196;SDS011;55019;49.382;11.358;2023-07-24T02:59:11;7.53;;;3.58;;
68196;SDS011;55019;49.382;11.358;2023-07-24T03:01:37;6.10;;;3.25;;
68196;SDS011;55019;49.382;11.358;2023-07-24T03:04:02;7.57;;;3.80;;
68196;SDS011;55019;49.382;11.358;2023-07-24T03:06:30;6.00;;;3.45;;
68196;SDS011;55019;49.382;11.358;2023-07-24T03:08:56;6.97;;;3.88;;
68196;SDS011;55019;49.382;11.358;2023-07-24T03:11:23;7.40;;;3.85;;
68196;SDS011;55019;49.382;11.358;2023-07-24T03:13:49;5.68;;;3.70;;
68196;SDS011;55019;49.382;11.358;2023-07-24T03:16:22;5.57;;;3.15;;
68196;SDS011;55019;49.382;11.358;2023-07-24T03:18:47;7.18;;;3.60;;
68196;SDS011;55019;49.382;11.358;2023-07-24T03:21:13;5.40;;;3.75;;
68196;SDS011;55019;49.382;11.358;2023-07-24T03:23:39;6.30;;;3.38;;
68196;SDS011;55019;49.382;11.358;2023-07-24T03:26:05;6.45;;;3.65;;
68196;SDS011;55019;49.382;11.358;2023-07-24T03:28:30;7.22;;;3.50;;
68196;SDS011;55019;49.382;11.358;2023-07-24T03:30:56;6.72;;;3.67;;
68196;SDS011;55019;49.382;11.358;2023-07-24T03:33:22;5.88;;;3.80;;
68196;SDS011;55019;49.382;11.358;2023-07-24T03:35:50;6.70;;;3.42;;
68196;SDS011;55019;49.382;11.358;2023-07-24T03:38:16;8.00;;;3.97;;
68196;SDS011;55019;49.382;11.358;2023-07-24T03:40:42;6.30;;;3.30;;
68196;SDS011;55019;49.382;11.358;2023-07-24T03:43:07;7.30;;;3.58;;
68196;SDS011;55019;49.382;11.358;2023-07-24T03:45:33;6.45;;;3.42;;
68196;SDS011;55019;49.382;11.358;2023-07-24T03:47:59;7.70;;;4.43;;
68196;SDS011;55019;49.382;11.358;2023-07-24T03:50:24;6.47;;;3.40;;
68196;SDS011;55019;49.382;11.358;2023-07-24T03:52:50;9.02;;;4.07;;
68196;SDS011;55019;49.382;11.358;2023-07-24T03:55:16;6.03;;;3.20;;
68196;SDS011;55019;49.382;11.358;2023-07-24T03:57:41;6.03;;;3.67;;
68196;SDS011;55019;49.382;11.358;2023-07-24T04:00:07;6.38;;;3.72;;
68196;SDS011;55019;49.382;11.358;2023-07-24T04:02:39;7.40;;;3.60;;
68196;SDS011;55019;49.382;11.358;2023-07-24T04:05:05;7.55;;;3.28;;
68196;SDS011;55019;49.382;11.358;2023-07-24T04:07:31;7.20;;;3.88;;
68196;SDS011;55019;49.382;11.358;2023-07-24T04:09:57;6.90;;;3.65;;
68196;SDS011;55019;49.382;11.358;2023-07-24T04:12:22;5.40;;;3.60;;
68196;SDS011;55019;49.382;11.358;2023-07-24T04:14:48;7.15;;;3.67;;
68196;SDS011;55019;49.382;11.358;2023-07-24T04:17:16;6.90;;;3.95;;
68196;SDS011;55019;49.382;11.358;2023-07-24T04:19:42;7.72;;;4.38;;
68196;SDS011;55019;49.382;11.358;2023-07-24T04:22:08;8.10;;;4.53;;
68196;SDS011;55019;49.382;11.358;2023-07-24T04:24:33;10.25;;;4.88;;
68196;SDS011;55019;49.382;11.358;2023-07-24T04:26:59;8.38;;;4.53;;
68196;SDS011;55019;49.382;11.358;2023-07-24T04:29:25;7.07;;;3.80;;
68196;SDS011;55019;49.382;11.358;2023-07-24T04:31:51;6.13;;;3.78;;
68196;SDS011;55019;49.382;11.358;2023-07-24T04:34:17;7.43;;;4.25;;
68196;SDS011;55019;49.382;11.358;2023-07-24T04:36:43;7.63;;;4.57;;
68196;SDS011;55019;49.382;11.358;2023-07-24T04:39:08;11.15;;;5.60;;
68196;SDS011;55019;49.382;11.358;2023-07-24T04:41:34;7.90;;;4.43;;
68196;SDS011;55019;49.382;11.358;2023-07-24T04:44:00;8.75;;;5.00;;
68196;SDS011;55019;49.382;11.358;2023-07-24T04:46:25;9.68;;;4.90;;
68196;SDS011;55019;49.382;11.358;2023-07-24T04:48:51;8.10;;;4.78;;
68196;SDS011;55019;49.382;11.358;2023-07-24T04:51:17;8.93;;;4.82;;
68196;SDS011;55019;49.382;11.358;2023-07-24T04:53:44;7.45;;;4.32;;
68196;SDS011;55019;49.382;11.358;2023-07-24T04:56:10;8.75;;;4.88;;
68196;SDS011;55019;49.382;11.358;2023-07-24T04:58:36;9.57;;;5.75;;
68196;SDS011;55019;49.382;11.358;2023-07-24T05:01:02;7.85;;;4.35;;
68196;SDS011;55019;49.382;11.358;2023-07-24T05:03:29;8.98;;;4.57;;
68196;SDS011;55019;49.382;11.358;2023-07-24T05:05:55;7.65;;;4.47;;
68196;SDS011;55019;49.382;11.358;2023-07-24T05:08:23;8.27;;;3.80;;
68196;SDS011;55019;49.382;11.358;2023-07-24T05:10:55;7.68;;;4.07;;
68196;SDS011;55019;49.382;11.358;2023-07-24T05:13:22;8.35;;;4.80;;
68196;SDS011;55019;49.382;11.358;2023-07-24T05:15:48;9.30;;;5.03;;
68196;SDS011;55019;49.382;11.358;2023-07-24T05:18:13;10.27;;;4.50;;
68196;SDS011;55019;49.382;11.358;2023-07-24T05:20:42;7.65;;;4.78;;
68196;SDS011;55019;49.382;11.358;2023-07-24T05:23:09;8.20;;;4.32;;
68196;SDS011;55019;49.382;11.358;2023-07-24T05:25:35;7.82;;;4.47;;
68196;SDS011;55019;49.382;11.358;2023-07-24T05:28:01;8.25;;;3.88;;
68196;SDS011;55019;49.382;11.358;2023-07-24T05:30:26;6.60;;;3.78;;
68196;SDS011;55019;49.382;11.358;2023-07-24T05:32:52;7.68;;;4.15;;
68196;SDS011;55019;49.382;11.358;2023-07-24T05:35:18;8.40;;;4.78;;
68196;SDS011;55019;49.382;11.358;2023-07-24T05:37:43;8.73;;;4.95;;
68196;SDS011;55019;49.382;11.358;2023-07-24T05:40:09;7.13;;;4.22;;
68196;SDS011;55019;49.382;11.358;2023-07-24T05:42:35;7.97;;;4.88;;
68196;SDS011;55019;49.382;11.358;2023-07-24T05:45:07;7.80;;;4.00;;
68196;SDS011;55019;49.382;11.358;2023-07-24T05:47:33;8.35;;;5.10;;
68196;SDS011;55019;49.382;11.358;2023-07-24T05:49:59;9.27;;;4.63;;
68196;SDS011;55019;49.382;11.358;2023-07-24T05:52:25;7.45;;;4.28;;
68196;SDS011;55019;49.382;11.358;2023-07-24T05:54:51;6.97;;;4.35;;
68196;SDS011;55019;49.382;11.358;2023-07-24T05:57:16;8.70;;;4.30;;
68196;SDS011;55019;49.382;11.358;2023-07-24T05:59:42;8.52;;;4.63;;
68196;SDS011;55019;49.382;11.358;2023-07-24T06:02:07;7.47;;;5.18;;
68196;SDS011;55019;49.382;11.358;2023-07-24T06:04:34;7.40;;;4.25;;
68196;SDS011;55019;49.382;11.358;2023-07-24T06:07:00;8.73;;;5.18;;
68196;SDS011;55019;49.382;11.358;2023-07-24T06:09:25;7.80;;;5.13;;
68196;SDS011;55019;49.382;11.358;2023-07-24T06:11:51;8.13;;;5.05;;
68196;SDS011;55019;49.382;11.358;2023-07-24T06:14:17;7.35;;;4.50;;
68196;SDS011;55019;49.382;11.358;2023-07-24T06:16:42;8.85;;;4.50;;
68196;SDS011;55019;49.382;11.358;2023-07-24T06:19:08;9.68;;;5.47;;
68196;SDS011;55019;49.382;11.358;2023-07-24T06:21:34;8.23;;;4.60;;
68196;SDS011;55019;49.382;11.358;2023-07-24T06:23:59;7.22;;;4.50;;
68196;SDS011;55019;49.382;11.358;2023-07-24T06:26:25;7.82;;;4.57;;
68196;SDS011;55019;49.382;11.358;2023-07-24T06:28:51;6.40;;;3.63;;
68196;SDS011;55019;49.382;11.358;2023-07-24T06:31:16;6.88;;;4.20;;
68196;SDS011;55019;49.382;11.358;2023-07-24T06:33:42;6.22;;;3.80;;
68196;SDS011;55019;49.382;11.358;2023-07-24T06:36:11;6.78;;;3.83;;
68196;SDS011;55019;49.382;11.358;2023-07-24T06:38:36;6.53;;;4.22;;
68196;SDS011;55019;49.382;11.358;2023-07-24T06:41:02;7.45;;;4.53;;
68196;SDS011;55019;49.382;11.358;2023-07-24T06:43:28;8.35;;;4.50;;
68196;SDS011;55019;49.382;11.358;2023-07-24T06:45:54;7.63;;;4.03;;
68196;SDS011;55019;49.382;11.358;2023-07-24T06:48:19;7.47;;;4.25;;
68196;SDS011;55019;49.382;11.358;2023-07-24T06:50:45;6.80;;;3.53;;
68196;SDS011;55019;49.382;11.358;2023-07-24T06:53:11;7.35;;;4.15;;
68196;SDS011;55019;49.382;11.358;2023-07-24T06:55:36;7.50;;;4.38;;
68196;SDS011;55019;49.382;11.358;2023-07-24T06:58:02;7.60;;;4.00;;
68196;SDS011;55019;49.382;11.358;2023-07-24T07:00:28;7.60;;;3.85;;
68196;SDS011;55019;49.382;11.358;2023-07-24T07:02:53;8.43;;;4.45;;
68196;SDS011;55019;49.382;11.358;2023-07-24T07:05:19;6.80;;;4.05;;
68196;SDS011;55019;49.382;11.358;2023-07-24T07:07:45;7.88;;;4.30;;
68196;SDS011;55019;49.382;11.358;2023-07-24T07:10:10;9.57;;;4.75;;
68196;SDS011;55019;49.382;11.358;2023-07-24T07:12:36;7.43;;;4.60;;
68196;SDS011;55019;49.382;11.358;2023-07-24T07:15:02;7.18;;;3.75;;
68196;SDS011;55019;49.382;11.358;2023-07-24T07:17:27;7.97;;;4.25;;
68196;SDS011;55019;49.382;11.358;2023-07-24T07:19:53;7.07;;;3.92;;
68196;SDS011;55019;49.382;11.358;2023-07-24T07:22:21;6.15;;;3.40;;
68196;SDS011;55019;49.382;11.358;2023-07-24T07:24:47;7.32;;;4.40;;
68196;SDS011;55019;49.382;11.358;2023-07-24T07:27:13;8.05;;;4.00;;
68196;SDS011;55019;49.382;11.358;2023-07-24T07:29:42;9.27;;;4.75;;
68196;SDS011;55019;49.382;11.358;2023-07-24T07:32:09;8.07;;;4.82;;
68196;SDS011;55019;49.382;11.358;2023-07-24T07:34:34;7.72;;;4.30;;
68196;SDS011;55019;49.382;11.358;2023-07-24T07:37:01;7.50;;;3.75;;
68196;SDS011;55019;49.382;11.358;2023-07-24T07:39:27;8.02;;;4.05;;
68196;SDS011;55019;49.382;11.358;2023-07-24T07:41:52;6.72;;;3.95;;
68196;SDS011;55019;49.382;11.358;2023-07-24T07:44:18;7.13;;;4.88;;
68196;SDS011;55019;49.382;11.358;2023-07-24T07:46:44;9.63;;;4.80;;
68196;SDS011;55019;49.382;11.358;2023-07-24T07:49:09;7.28;;;4.90;;
68196;SDS011;55019;49.382;11.358;2023-07-24T07:51:35;6.20;;;4.20;;
68196;SDS011;55019;49.382;11.358;2023-07-24T07:54:01;7.85;;;4.50;;
68196;SDS011;55019;49.382;11.358;2023-07-24T07:56:26;7.70;;;4.22;;
68196;SDS011;55019;49.382;11.358;2023-07-24T07:58:53;9.05;;;4.75;;
68196;SDS011;55019;49.382;11.358;2023-07-24T08:01:19;7.38;;;4.88;;
68196;SDS011;55019;49.382;11.358;2023-07-24T08:03:45;8.90;;;4.70;;
68196;SDS011;55019;49.382;11.358;2023-07-24T08:06:11;8.05;;;4.65;;
68196;SDS011;55019;49.382;11.358;2023-07-24T08:08:37;9.95;;;4.40;;
68196;SDS011;55019;49.382;11.358;2023-07-24T08:11:06;8.95;;;4.78;;
68196;SDS011;55019;49.382;11.358;2023-07-24T08:13:32;6.63;;;4.05;;
68196;SDS011;55019;49.382;11.358;2023-07-24T08:15:58;9.57;;;4.90;;
68196;SDS011;55019;49.382;11.358;2023-07-24T08:18:25;7.63;;;4.50;;
68196;SDS011;55019;49.382;11.358;2023-07-24T08:20:51;8.13;;;5.00;;
68196;SDS011;55019;49.382;11.358;2023-07-24T08:23:16;7.68;;;4.60;;
68196;SDS011;55019;49.382;11.358;2023-07-24T08:25:55;7.28;;;4.38;;
68196;SDS011;55019;49.382;11.358;2023-07-24T08:28:21;6.90;;;4.53;;
68196;SDS011;55019;49.382;11.358;2023-07-24T08:30:55;8.05;;;4.68;;
68196;SDS011;55019;49.382;11.358;2023-07-24T08:33:23;8.80;;;5.05;;
68196;SDS011;55019;49.382;11.358;2023-07-24T08:35:58;8.55;;;4.85;;
68196;SDS011;55019;49.382;11.358;2023-07-24T08:38:27;8.50;;;5.80;;
68196;SDS011;55019;49.382;11.358;2023-07-24T08:41:26;8.02;;;4.53;;
68196;SDS011;55019;49.382;11.358;2023-07-24T08:43:45;7.80;;;4.32;;
68196;SDS011;55019;49.382;11.358;2023-07-24T08:46:11;7.55;;;4.53;;
68196;SDS011;55019;49.382;11.358;2023-07-24T08:48:40;7.15;;;4.82;;
68196;SDS011;55019;49.382;11.358;2023-07-24T08:51:08;8.52;;;5.35;;
68196;SDS011;55019;49.382;11.358;2023-07-24T08:53:35;11.82;;;5.40;;
68196;SDS011;55019;49.382;11.358;2023-07-24T08:56:03;7.85;;;5.10;;
68196;SDS011;55019;49.382;11.358;2023-07-24T08:58:30;9.98;;;5.10;;
68196;SDS011;55019;49.382;11.358;2023-07-24T09:00:56;7.82;;;4.88;;
68196;SDS011;55019;49.382;11.358;2023-07-24T09:03:22;8.45;;;4.95;;
68196;SDS011;55019;49.382;11.358;2023-07-24T09:05:48;8.15;;;5.30;;
68196;SDS011;55019;49.382;11.358;2023-07-24T09:08:14;8.77;;;4.68;;
68196;SDS011;55019;49.382;11.358;2023-07-24T09:10:40;8.43;;;5.15;;
68196;SDS011;55019;49.382;11.358;2023-07-24T09:13:06;9.35;;;5.18;;
68196;SDS011;55019;49.382;11.358;2023-07-24T09:15:40;8.55;;;4.82;;
68196;SDS011;55019;49.382;11.358;2023-07-24T09:20:39;7.07;;;4.50;;
68196;SDS011;55019;49.382;11.358;2023-07-24T09:23:06;7.65;;;4.53;;
68196;SDS011;55019;49.382;11.358;2023-07-24T09:25:36;8.85;;;4.53;;
68196;SDS011;55019;49.382;11.358;2023-07-24T09:28:10;9.18;;;5.10;;
68196;SDS011;55019;49.382;11.358;2023-07-24T09:30:37;8.07;;;4.55;;
68196;SDS011;55019;49.382;11.358;2023-07-24T09:33:04;8.88;;;5.10;;
68196;SDS011;55019;49.382;11.358;2023-07-24T09:35:30;11.25;;;5.40;;
68196;SDS011;55019;49.382;11.358;2023-07-24T09:38:14;7.40;;;4.80;;
68196;SDS011;55019;49.382;11.358;2023-07-24T09:40:44;8.75;;;5.20;;
68196;SDS011;55019;49.382;11.358;2023-07-24T09:43:17;8.00;;;4.85;;
68196;SDS011;55019;49.382;11.358;2023-07-24T09:45:47;8.63;;;5.40;;
68196;SDS011;55019;49.382;11.358;2023-07-24T09:48:14;9.02;;;5.25;;
68196;SDS011;55019;49.382;11.358;2023-07-24T09:50:41;8.93;;;5.57;;
68196;SDS011;55019;49.382;11.358;2023-07-24T09:56:08;7.35;;;4.78;;
68196;SDS011;55019;49.382;11.358;2023-07-24T09:58:36;8.63;;;5.10;;
68196;SDS011;55019;49.382;11.358;2023-07-24T10:01:04;8.98;;;5.35;;
68196;SDS011;55019;49.382;11.358;2023-07-24T10:03:33;9.50;;;4.95;;
68196;SDS011;55019;49.382;11.358;2023-07-24T10:06:00;8.15;;;5.15;;
68196;SDS011;55019;49.382;11.358;2023-07-24T10:08:27;8.23;;;6.00;;
68196;SDS011;55019;49.382;11.358;2023-07-24T10:10:53;9.80;;;6.13;;
68196;SDS011;55019;49.382;11.358;2023-07-24T10:13:19;8.18;;;5.35;;
68196;SDS011;55019;49.382;11.358;2023-07-24T10:15:47;7.70;;;5.45;;
68196;SDS011;55019;49.382;11.358;2023-07-24T10:18:15;8.18;;;5.63;;
68196;SDS011;55019;49.382;11.358;2023-07-24T10:20:43;10.18;;;6.80;;
68196;SDS011;55019;49.382;11.358;2023-07-24T10:23:09;9.45;;;5.88;;
68196;SDS011;55019;49.382;11.358;2023-07-24T10:25:39;7.80;;;5.85;;
68196;SDS011;55019;49.382;11.358;2023-07-24T10:28:09;9.05;;;5.60;;
68196;SDS011;55019;49.382;11.358;2023-07-24T10:30:39;8.27;;;5.15;;
68196;SDS011;55019;49.382;11.358;2023-07-24T10:35:40;8.25;;;5.18;;
68196;SDS011;55019;49.382;11.358;2023-07-24T10:38:07;7.43;;;5.53;;
68196;SDS011;55019;49.382;11.358;2023-07-24T10:40:33;10.65;;;5.63;;
68196;SDS011;55019;49.382;11.358;2023-07-24T10:43:00;7.68;;;5.55;;
68196;SDS011;55019;49.382;11.358;2023-07-24T10:45:38;7.53;;;4.65;;
68196;SDS011;55019;49.382;11.358;2023-07-24T10:48:12;8.15;;;5.57;;
68196;SDS011;55019;49.382;11.358;2023-07-24T10:50:39;8.50;;;5.32;;
68196;SDS011;55019;49.382;11.358;2023-07-24T10:53:06;9.52;;;6.15;;
68196;SDS011;55019;49.382;11.358;2023-07-24T10:55:32;10.30;;;5.47;;
68196;SDS011;55019;49.382;11.358;2023-07-24T10:57:57;9.20;;;4.90;;
68196;SDS011;55019;49.382;11.358;2023-07-24T11:00:23;8.55;;;5.15;;
68196;SDS011;55019;49.382;11.358;2023-07-24T11:02:49;8.60;;;4.75;;
68196;SDS011;55019;49.382;11.358;2023-07-24T11:05:18;8.80;;;6.15;;
68196;SDS011;55019;49.382;11.358;2023-07-24T11:07:46;10.00;;;5.88;;
68196;SDS011;55019;49.382;11.358;2023-07-24T11:10:22;8.35;;;5.50;;
68196;SDS011;55019;49.382;11.358;2023-07-24T11:12:48;8.10;;;5.18;;
68196;SDS011;55019;49.382;11.358;2023-07-24T11:15:15;7.88;;;5.68;;
68196;SDS011;55019;49.382;11.358;2023-07-24T11:17:41;9.40;;;5.28;;
68196;SDS011;55019;49.382;11.358;2023-07-24T11:20:08;8.05;;;5.75;;
68196;SDS011;55019;49.382;11.358;2023-07-24T11:22:35;8.73;;;5.10;;
68196;SDS011;55019;49.382;11.358;2023-07-24T11:25:00;8.43;;;5.18;;
68196;SDS011;55019;49.382;11.358;2023-07-24T11:27:30;7.20;;;4.95;;
68196;SDS011;55019;49.382;11.358;2023-07-24T11:29:56;7.70;;;4.80;;
68196;SDS011;55019;49.382;11.358;2023-07-24T11:32:22;9.73;;;4.63;;
68196;SDS011;55019;49.382;11.358;2023-07-24T11:34:48;8.93;;;5.10;;
68196;SDS011;55019;49.382;11.358;2023-07-24T11:37:14;8.57;;;5.28;;
68196;SDS011;55019;49.382;11.358;2023-07-24T11:39:40;8.88;;;5.32;;
68196;SDS011;55019;49.382;11.358;2023-07-24T11:42:06;9.15;;;5.10;;
68196;SDS011;55019;49.382;11.358;2023-07-24T11:44:32;7.50;;;5.43;;
68196;SDS011;55019;49.382;11.358;2023-07-24T11:47:05;7.55;;;4.65;;
68196;SDS011;55019;49.382;11.358;2023-07-24T11:49:31;7.93;;;5.00;;
68196;SDS011;55019;49.382;11.358;2023-07-24T11:52:01;11.00;;;5.00;;
68196;SDS011;55019;49.382;11.358;2023-07-24T11:54:29;11.60;;;6.30;;
68196;SDS011;55019;49.382;11.358;2023-07-24T11:56:55;8.55;;;5.10;;
68196;SDS011;55019;49.382;11.358;2023-07-24T11:59:20;10.88;;;5.80;;
68196;SDS011;55019;49.382;11.358;2023-07-24T12:01:46;7.88;;;4.65;;
68196;SDS011;55019;49.382;11.358;2023-07-24T12:04:15;8.13;;;4.75;;
68196;SDS011;55019;49.382;11.358;2023-07-24T12:06:42;7.47;;;4.72;;
68196;SDS011;55019;49.382;11.358;2023-07-24T12:09:08;7.80;;;4.97;;
68196;SDS011;55019;49.382;11.358;2023-07-24T12:11:44;6.50;;;4.60;;
68196;SDS011;55019;49.382;11.358;2023-07-24T12:14:12;5.82;;;3.17;;
68196;SDS011;55019;49.382;11.358;2023-07-24T12:16:38;6.60;;;4.05;;
68196;SDS011;55019;49.382;11.358;2023-07-24T12:19:04;7.57;;;4.40;;
68196;SDS011;55019;49.382;11.358;2023-07-24T12:21:30;8.63;;;4.20;;
68196;SDS011;55019;49.382;11.358;2023-07-24T12:23:55;6.20;;;3.38;;
68196;SDS011;55019;49.382;11.358;2023-07-24T12:26:21;8.90;;;4.53;;
68196;SDS011;55019;49.382;11.358;2023-07-24T12:28:47;6.90;;;3.85;;
68196;SDS011;55019;49.382;11.358;2023-07-24T12:31:13;6.45;;;4.13;;
68196;SDS011;55019;49.382;11.358;2023-07-24T12:33:38;7.90;;;4.68;;
68196;SDS011;55019;49.382;11.358;2023-07-24T12:36:04;5.95;;;3.63;;
68196;SDS011;55019;49.382;11.358;2023-07-24T12:38:30;6.90;;;4.32;;
68196;SDS011;55019;49.382;11.358;2023-07-24T12:40:56;6.88;;;3.90;;
68196;SDS011;55019;49.382;11.358;2023-07-24T12:43:21;8.60;;;4.40;;
68196;SDS011;55019;49.382;11.358;2023-07-24T12:45:47;7.10;;;4.10;;
68196;SDS011;55019;49.382;11.358;2023-07-24T12:48:13;9.05;;;4.07;;
68196;SDS011;55019;49.382;11.358;2023-07-24T12:50:38;7.82;;;3.72;;
68196;SDS011;55019;49.382;11.358;2023-07-24T12:53:04;7.65;;;3.70;;
68196;SDS011;55019;49.382;11.358;2023-07-24T12:55:30;5.32;;;2.97;;
68196;SDS011;55019;49.382;11.358;2023-07-24T12:57:55;6.35;;;3.67;;
68196;SDS011;55019;49.382;11.358;2023-07-24T13:00:21;6.28;;;3.70;;
68196;SDS011;55019;49.382;11.358;2023-07-24T13:02:47;5.35;;;3.20;;
68196;SDS011;55019;49.382;11.358;2023-07-24T13:05:13;6.07;;;3.63;;
68196;SDS011;55019;49.382;11.358;2023-07-24T13:07:38;5.97;;;3.30;;
68196;SDS011;55019;49.382;11.358;2023-07-24T13:10:04;6.03;;;3.30;;
68196;SDS011;55019;49.382;11.358;2023-07-24T13:12:31;6.43;;;3.50;;
68196;SDS011;55019;49.382;11.358;2023-07-24T13:14:56;7.65;;;4.07;;
68196;SDS011;55019;49.382;11.358;2023-07-24T13:17:22;6.18;;;3.33;;
68196;SDS011;55019;49.382;11.358;2023-07-24T13:19:48;5.05;;;3.60;;
68196;SDS011;55019;49.382;11.358;2023-07-24T13:22:13;6.25;;;3.35;;
68196;SDS011;55019;49.382;11.358;2023-07-24T13:24:39;5.47;;;3.53;;
68196;SDS011;55019;49.382;11.358;2023-07-24T13:27:05;6.47;;;3.92;;
68196;SDS011;55019;49.382;11.358;2023-07-24T13:29:31;5.10;;;3.30;;
68196;SDS011;55019;49.382;11.358;2023-07-24T13:31:56;5.85;;;4.18;;
68196;SDS011;55019;49.382;11.358;2023-07-24T13:34:23;3.90;;;2.60;;
68196;SDS011;55019;49.382;11.358;2023-07-24T13:36:49;5.85;;;3.10;;
68196;SDS011;55019;49.382;11.358;2023-07-24T13:39:15;5.75;;;3.40;;
68196;SDS011;55019;49.382;11.358;2023-07-24T13:41:41;4.88;;;3.30;;
68196;SDS011;55019;49.382;11.358;2023-07-24T13:44:06;6.43;;;3.35;;
68196;SDS011;55019;49.382;11.358;2023-07-24T13:46:32;4.95;;;3.53;;
68196;SDS011;55019;49.382;11.358;2023-07-24T13:48:58;4.72;;;2.97;;
68196;SDS011;55019;49.382;11.358;2023-07-24T13:51:24;5.80;;;3.45;;
68196;SDS011;55019;49.382;11.358;2023-07-24T13:53:49;6.05;;;3.25;;
68196;SDS011;55019;49.382;11.358;2023-07-24T13:56:17;6.05;;;3.22;;
68196;SDS011;55019;49.382;11.358;2023-07-24T13:58:44;6.18;;;3.40;;
68196;SDS011;55019;49.382;11.358;2023-07-24T14:01:10;4.75;;;2.92;;
68196;SDS011;55019;49.382;11.358;2023-07-24T14:03:36;6.07;;;3.33;;
68196;SDS011;55019;49.382;11.358;2023-07-24T14:06:02;4.57;;;3.22;;
68196;SDS011;55019;49.382;11.358;2023-07-24T14:08:28;4.90;;;2.95;;
68196;SDS011;55019;49.382;11.358;2023-07-24T14:10:53;5.38;;;3.55;;
68196;SDS011;55019;49.382;11.358;2023-07-24T14:13:19;4.28;;;2.85;;
68196;SDS011;55019;49.382;11.358;2023-07-24T14:15:45;5.45;;;3.08;;
68196;SDS011;55019;49.382;11.358;2023-07-24T14:18:10;6.38;;;3.85;;
68196;SDS011;55019;49.382;11.358;2023-07-24T14:20:36;5.20;;;3.22;;
68196;SDS011;55019;49.382;11.358;2023-07-24T14:23:02;5.10;;;3.10;;
68196;SDS011;55019;49.382;11.358;2023-07-24T14:25:28;4.00;;;2.95;;
68196;SDS011;55019;49.382;11.358;2023-07-24T14:27:54;5.50;;;3.00;;
68196;SDS011;55019;49.382;11.358;2023-07-24T14:30:19;6.20;;;3.05;;
68196;SDS011;55019;49.382;11.358;2023-07-24T14:32:45;5.82;;;3.15;;
68196;SDS011;55019;49.382;11.358;2023-07-24T14:35:11;4.88;;;2.83;;
68196;SDS011;55019;49.382;11.358;2023-07-24T14:37:37;5.43;;;3.00;;
68196;SDS011;55019;49.382;11.358;2023-07-24T14:40:02;6.63;;;3.40;;
68196;SDS011;55019;49.382;11.358;2023-07-24T14:42:28;4.13;;;2.65;;